createdAt,value
2022-10-17T00:00:17.171Z,13.10
2022-10-17T00:05:25.493Z,14.30
2022-10-17T00:10:33.285Z,16.70
2022-10-17T00:15:45.086Z,14.00
2022-10-17T00:20:52.840Z,13.80
2022-10-17T00:26:07.198Z,12.20
2022-10-17T00:31:14.676Z,14.20
2022-10-17T00:36:24.138Z,9.80
2022-10-17T00:41:35.521Z,11.40
2022-10-17T00:46:45.776Z,8.40
2022-10-17T00:51:56.055Z,10.90
2022-10-17T00:57:04.040Z,10.40
2022-10-17T01:02:14.994Z,8.60
2022-10-17T01:07:22.406Z,9.10
2022-10-17T01:12:38.820Z,8.00
2022-10-17T01:18:00.917Z,9.20
2022-10-17T01:23:29.800Z,6.40
2022-10-17T01:29:07.680Z,7.30
2022-10-17T01:34:21.022Z,8.60
2022-10-17T01:39:40.067Z,5.40
2022-10-17T01:44:57.522Z,7.70
2022-10-17T01:50:09.604Z,4.40
2022-10-17T01:55:22.161Z,5.00
2022-10-17T02:00:32.692Z,6.00
2022-10-17T02:05:42.846Z,4.60
2022-10-17T02:10:56.643Z,9.10
2022-10-17T02:16:22.912Z,5.70
2022-10-17T02:21:37.051Z,10.50
2022-10-17T02:26:52.657Z,9.30
2022-10-17T02:32:06.375Z,6.40
2022-10-17T02:37:17.080Z,5.60
2022-10-17T02:42:26.640Z,6.90
2022-10-17T02:47:38.797Z,7.20
2022-10-17T02:52:53.569Z,6.90
2022-10-17T02:58:06.808Z,9.00
2022-10-17T03:03:26.572Z,10.40
2022-10-17T03:08:34.347Z,9.20
2022-10-17T03:13:42.038Z,8.00
2022-10-17T03:18:50.394Z,7.50
2022-10-17T03:23:58.285Z,5.70
2022-10-17T03:29:05.996Z,6.00
2022-10-17T03:34:14.214Z,5.10
2022-10-17T03:39:21.600Z,6.50
2022-10-17T03:44:29.012Z,10.70
2022-10-17T03:49:36.756Z,6.10
2022-10-17T03:54:45.210Z,6.70
2022-10-17T03:59:53.787Z,7.20
2022-10-17T04:05:02.051Z,7.90
2022-10-17T04:10:11.686Z,6.40
2022-10-17T04:15:20.137Z,9.80
2022-10-17T04:20:28.170Z,7.80
2022-10-17T04:25:38.109Z,7.80
2022-10-17T04:30:45.782Z,7.70
2022-10-17T04:36:01.341Z,13.00
2022-10-17T04:41:13.314Z,6.40
2022-10-17T04:46:20.651Z,6.70
2022-10-17T04:51:29.040Z,6.80
2022-10-17T04:56:52.127Z,8.60
2022-10-17T05:02:01.525Z,6.60
2022-10-17T05:07:11.245Z,9.10
2022-10-17T05:12:35.496Z,5.50
2022-10-17T05:17:43.746Z,6.00
2022-10-17T05:22:52.199Z,7.70
2022-10-17T05:28:02.461Z,7.50
2022-10-17T05:33:10.751Z,8.60
2022-10-17T05:38:19.375Z,12.80
2022-10-17T05:43:28.300Z,12.40
2022-10-17T05:48:36.572Z,11.80
2022-10-17T05:53:45.340Z,12.30
2022-10-17T05:59:01.026Z,9.30
2022-10-17T06:04:29.895Z,7.00
2022-10-17T06:09:38.208Z,9.50
2022-10-17T06:14:46.867Z,7.90
2022-10-17T06:19:55.690Z,8.00
2022-10-17T06:25:04.270Z,6.60
2022-10-17T06:30:13.867Z,9.30
2022-10-17T06:35:22.230Z,6.70
2022-10-17T06:40:30.641Z,6.90
2022-10-17T06:45:40.167Z,6.40
2022-10-17T06:51:10.472Z,7.10
2022-10-17T06:56:28.399Z,9.30
2022-10-17T07:02:08.968Z,7.80
2022-10-17T07:07:17.990Z,7.60
2022-10-17T07:12:26.586Z,9.40
2022-10-17T07:17:34.982Z,9.50
2022-10-17T07:22:43.031Z,9.20
2022-10-17T07:27:52.081Z,10.40
2022-10-17T07:33:01.941Z,10.80
2022-10-17T07:38:10.058Z,8.80
2022-10-17T07:43:18.464Z,11.60
2022-10-17T07:48:26.906Z,10.50
2022-10-17T07:53:36.438Z,10.80
2022-10-17T07:58:44.421Z,12.10
2022-10-17T08:03:52.759Z,10.80
2022-10-17T08:09:02.116Z,9.70
2022-10-17T08:14:10.348Z,10.10
2022-10-17T08:19:17.387Z,11.00
2022-10-17T08:24:25.638Z,10.30
2022-10-17T08:29:34.541Z,10.30
2022-10-17T08:34:42.988Z,11.40
2022-10-17T08:39:50.272Z,9.60
2022-10-17T08:45:08.489Z,9.50
2022-10-17T08:50:23.766Z,8.10
2022-10-17T08:55:41.448Z,6.90
2022-10-17T09:00:59.917Z,6.10
2022-10-17T09:06:20.934Z,10.00
2022-10-17T09:11:47.099Z,5.70
2022-10-17T09:17:05.740Z,4.80
2022-10-17T09:22:18.838Z,5.30
2022-10-17T09:27:34.059Z,7.80
2022-10-17T09:32:43.424Z,5.40
2022-10-17T09:37:52.586Z,3.60
2022-10-17T09:43:01.595Z,3.40
2022-10-17T09:48:19.916Z,4.30
2022-10-17T09:53:32.633Z,4.40
2022-10-17T09:58:48.255Z,3.30
2022-10-17T10:04:13.588Z,3.60
2022-10-17T10:09:27.323Z,5.60
2022-10-17T10:14:37.350Z,3.00
2022-10-17T10:19:53.986Z,3.70
2022-10-17T10:25:17.947Z,2.90
2022-10-17T10:30:36.157Z,2.50
2022-10-17T10:35:58.309Z,2.80
2022-10-17T10:41:09.680Z,2.70
2022-10-17T10:46:23.866Z,3.90
2022-10-17T10:51:38.043Z,2.40
2022-10-17T10:56:51.117Z,3.90
2022-10-17T11:02:05.482Z,3.10
2022-10-17T11:07:15.686Z,3.10
2022-10-17T11:12:26.855Z,3.70
2022-10-17T11:17:42.729Z,3.40
2022-10-17T11:22:54.249Z,3.90
2022-10-17T11:28:04.852Z,3.50
2022-10-17T11:33:18.471Z,4.10
2022-10-17T11:38:38.087Z,3.70
2022-10-17T11:43:53.539Z,3.40
2022-10-17T11:49:19.851Z,3.70
2022-10-17T11:54:36.301Z,4.30
2022-10-17T12:00:04.884Z,2.80
2022-10-17T12:05:24.124Z,2.60
2022-10-17T12:10:41.836Z,4.60
2022-10-17T12:15:49.754Z,2.50
2022-10-17T12:21:02.337Z,2.80
2022-10-17T12:26:11.880Z,2.40
2022-10-17T12:31:33.644Z,1.70
2022-10-17T12:36:43.818Z,2.00
2022-10-17T12:42:00.397Z,1.60
2022-10-17T12:47:40.791Z,3.20
2022-10-17T12:53:08.048Z,2.80
2022-10-17T12:58:18.201Z,2.20
2022-10-17T13:03:29.610Z,3.80
2022-10-17T13:08:40.897Z,3.40
2022-10-17T13:13:50.313Z,3.50
2022-10-17T13:18:58.978Z,3.60
2022-10-17T13:24:24.567Z,3.30
2022-10-17T13:29:33.344Z,3.20
2022-10-17T13:34:41.815Z,4.80
2022-10-17T13:40:00.428Z,3.30
2022-10-17T13:45:22.241Z,7.80
2022-10-17T13:50:45.787Z,4.50
2022-10-17T13:56:22.939Z,4.50
2022-10-17T14:01:30.311Z,10.40
2022-10-17T14:06:44.981Z,6.90
2022-10-17T14:12:05.228Z,6.40
2022-10-17T14:17:23.706Z,8.30
2022-10-17T14:22:36.657Z,9.00
2022-10-17T14:28:03.002Z,9.10
2022-10-17T14:33:15.750Z,8.50
2022-10-17T14:38:24.604Z,11.10
2022-10-17T14:43:34.442Z,9.10
2022-10-17T14:48:43.702Z,10.40
2022-10-17T14:54:05.706Z,13.50
2022-10-17T14:59:30.171Z,12.20
2022-10-17T15:04:46.418Z,10.90
2022-10-17T15:09:55.359Z,11.10
2022-10-17T15:15:02.936Z,12.60
2022-10-17T15:20:17.767Z,11.30
2022-10-17T15:25:25.883Z,15.90
2022-10-17T15:30:38.269Z,12.00
2022-10-17T15:35:46.235Z,13.20
2022-10-17T15:40:54.313Z,15.80
2022-10-17T15:46:04.307Z,16.50
2022-10-17T15:51:12.607Z,17.40
2022-10-17T15:56:24.980Z,18.80
2022-10-17T16:01:35.321Z,16.90
2022-10-17T16:06:44.665Z,19.80
2022-10-17T16:11:52.719Z,21.70
2022-10-17T16:17:00.721Z,20.40
2022-10-17T16:22:13.316Z,20.50
2022-10-17T16:27:22.541Z,24.00
2022-10-17T16:32:30.687Z,20.80
2022-10-17T16:37:38.897Z,24.00
2022-10-17T16:42:47.470Z,21.40
2022-10-17T16:47:56.222Z,23.10
2022-10-17T16:53:04.680Z,23.20
2022-10-17T16:58:12.804Z,21.40
2022-10-17T17:03:20.890Z,22.80
2022-10-17T17:08:29.751Z,24.30
2022-10-17T17:13:37.941Z,26.00
2022-10-17T17:18:47.173Z,25.80
2022-10-17T17:23:54.392Z,24.00
2022-10-17T17:29:03.262Z,26.60
2022-10-17T17:34:14.286Z,26.10
2022-10-17T17:39:25.403Z,26.30
2022-10-17T17:44:33.606Z,29.40
2022-10-17T17:49:41.414Z,25.90
2022-10-17T17:54:50.874Z,24.00
2022-10-17T17:59:59.213Z,26.40
2022-10-17T18:05:08.812Z,24.70
2022-10-17T18:10:17.280Z,23.00
2022-10-17T18:15:25.369Z,25.20
2022-10-17T18:20:34.343Z,26.80
2022-10-17T18:25:42.578Z,26.00
2022-10-17T18:30:50.825Z,28.20
2022-10-17T18:35:59.855Z,28.10
2022-10-17T18:41:12.238Z,28.30
2022-10-17T18:46:21.885Z,24.90
2022-10-17T18:51:30.173Z,28.80
2022-10-17T18:56:38.305Z,26.80
2022-10-17T19:01:46.946Z,28.80
2022-10-17T19:06:54.950Z,26.40
2022-10-17T19:12:03.286Z,27.20
2022-10-17T19:17:11.769Z,26.10
2022-10-17T19:22:19.885Z,28.70
2022-10-17T19:27:28.495Z,28.80
2022-10-17T19:32:37.080Z,27.90
2022-10-17T19:37:44.645Z,27.10
2022-10-17T19:42:52.778Z,26.40
2022-10-17T19:48:00.583Z,30.80
2022-10-17T19:53:08.463Z,30.50
2022-10-17T19:58:16.859Z,28.50
2022-10-17T20:03:25.592Z,29.40
2022-10-17T20:08:32.628Z,28.00
2022-10-17T20:13:41.139Z,32.30
2022-10-17T20:18:49.180Z,30.70
2022-10-17T20:23:57.680Z,29.30
2022-10-17T20:29:09.015Z,29.20
2022-10-17T20:34:18.957Z,27.60
2022-10-17T20:39:27.002Z,29.70
2022-10-17T20:44:35.278Z,26.20
2022-10-17T20:49:43.302Z,27.30
2022-10-17T20:54:52.169Z,31.70
2022-10-17T20:59:59.456Z,30.20
2022-10-17T21:05:08.216Z,29.20
2022-10-17T21:10:35.423Z,29.50
2022-10-17T21:15:44.744Z,27.50
2022-10-17T21:20:53.085Z,29.20
2022-10-17T21:26:07.415Z,32.40
2022-10-17T21:31:18.111Z,32.60
2022-10-17T21:36:27.065Z,30.00
2022-10-17T21:41:35.572Z,31.00
2022-10-17T21:46:43.924Z,28.40
2022-10-17T21:51:52.797Z,28.20
2022-10-17T21:57:00.717Z,30.50
2022-10-17T22:02:08.926Z,30.30
2022-10-17T22:07:17.194Z,28.70
2022-10-17T22:12:25.106Z,31.20
2022-10-17T22:17:32.966Z,32.30
2022-10-17T22:22:41.072Z,26.30
2022-10-17T22:27:49.041Z,27.70
2022-10-17T22:32:56.914Z,27.50
2022-10-17T22:38:04.802Z,29.30
2022-10-17T22:43:12.772Z,31.00
2022-10-17T22:48:20.631Z,30.80
2022-10-17T22:53:30.150Z,26.00
2022-10-17T22:58:38.730Z,28.90
2022-10-17T23:03:47.483Z,25.30
2022-10-17T23:08:55.906Z,26.90
2022-10-17T23:14:04.590Z,23.40
2022-10-17T23:19:12.167Z,26.40
2022-10-17T23:24:20.180Z,25.00
2022-10-17T23:29:33.081Z,27.20
2022-10-17T23:34:40.932Z,26.30
2022-10-17T23:39:48.748Z,23.20
2022-10-17T23:44:56.665Z,21.40
2022-10-17T23:50:04.699Z,24.20
2022-10-17T23:55:14.070Z,22.80
